Time;durP1;ratioP1;P1;durP2;ratioP2;P2;SDS_P1;SDS_P2;PMS_P1;PMS_P2;Temp;Humidity;BMP_temperature;BMP_pressure;BME280_temperature;BME280_humidity;BME280_pressure;Samples;Min_cycle;Max_cycle;Signal;HPM_P1;HPM_P2
2022/07/24 00:01:37;;;;;;;32.20;24.45;;;19.30;99.90;;;20.52;100.00;98888.44;5016487;28;125727;-74
2022/07/24 00:04:06;;;;;;;31.48;24.33;;;19.40;99.90;;;20.53;100.00;98884.50;5019710;28;126587;-75
2022/07/24 00:06:35;;;;;;;29.92;25.05;;;19.40;99.90;;;20.51;100.00;98886.88;5019414;28;130597;-74
2022/07/24 00:09:04;;;;;;;32.35;25.83;;;19.40;99.90;;;20.43;100.00;98884.09;5019713;28;129680;-72
2022/07/24 00:11:33;;;;;;;31.90;24.65;;;19.40;99.90;;;20.41;100.00;98880.97;5001168;28;126295;-75
2022/07/24 00:14:04;;;;;;;33.17;26.67;;;19.40;99.90;;;20.42;100.00;98878.97;5004494;28;125501;-75
2022/07/24 00:16:33;;;;;;;30.20;23.92;;;19.50;99.90;;;20.50;100.00;98874.25;5001400;28;129772;-74
2022/07/24 00:19:01;;;;;;;34.97;25.52;;;19.60;99.90;;;20.56;100.00;98873.47;5019280;28;130002;-76
2022/07/24 00:21:30;;;;;;;34.03;25.40;;;19.60;99.90;;;20.64;100.00;98874.25;5012904;28;125653;-75
2022/07/24 00:23:59;;;;;;;30.58;23.63;;;19.60;99.90;;;20.73;100.00;98893.97;5019535;28;125402;-75
2022/07/24 00:26:27;;;;;;;32.78;24.92;;;19.70;99.90;;;20.80;100.00;98884.91;5019045;28;130050;-76
2022/07/24 00:28:56;;;;;;;31.95;25.45;;;19.70;99.90;;;20.79;100.00;98878.59;5019761;28;129600;-75
2022/07/24 00:31:27;;;;;;;33.25;24.48;;;19.70;99.90;;;20.88;100.00;98877.41;5019338;28;126338;-75
2022/07/24 00:33:56;;;;;;;30.67;24.02;;;19.80;99.90;;;20.95;100.00;98882.91;5004476;28;124562;-74
2022/07/24 00:36:24;;;;;;;29.58;23.65;;;19.80;99.90;;;20.94;100.00;98881.34;5018657;28;129924;-73
2022/07/24 00:38:53;;;;;;;30.23;24.40;;;19.80;99.90;;;20.87;100.00;98878.59;5019139;28;130253;-74
2022/07/24 00:41:21;;;;;;;34.00;24.30;;;19.80;99.90;;;20.68;100.00;98875.06;5004380;28;124813;-75
2022/07/24 00:44:10;;;;;;;32.10;24.50;;;19.70;99.90;;;20.66;100.00;98871.91;5019331;28;126166;-74
2022/07/24 00:46:42;;;;;;;31.15;24.20;;;19.70;99.90;;;20.64;100.00;98863.22;5011737;28;129738;-74
2022/07/24 00:49:14;;;;;;;32.67;26.25;;;19.70;99.90;;;20.50;100.00;98866.78;5019121;28;129393;-74
2022/07/24 00:51:44;;;;;;;32.92;27.35;;;19.70;99.90;;;20.37;100.00;98869.13;5018946;28;125684;-73
2022/07/24 00:54:15;;;;;;;35.72;28.38;;;19.70;99.90;;;20.42;100.00;98874.25;5019203;28;125841;-73
2022/07/24 00:56:46;;;;;;;37.30;29.17;;;19.70;99.90;;;20.47;100.00;98870.31;5018639;28;129737;-76
2022/07/24 00:59:15;;;;;;;35.65;29.60;;;19.70;1.00;;;20.54;100.00;98866.78;5019863;28;129433;-73
2022/07/24 01:01:45;;;;;;;36.47;28.63;;;19.80;1.00;;;20.62;100.00;98865.59;5018308;28;126836;-73
2022/07/24 01:04:14;;;;;;;32.88;27.77;;;19.80;1.00;;;20.64;100.00;98865.97;5018605;28;126223;-73
2022/07/24 01:06:43;;;;;;;35.67;29.02;;;19.80;1.00;;;20.64;100.00;98877.00;5018390;28;130416;-74
2022/07/24 01:09:12;;;;;;;35.15;28.58;;;19.70;1.00;;;20.62;100.00;98871.88;5018860;28;129502;-75
2022/07/24 01:11:41;;;;;;;32.97;27.27;;;19.70;1.00;;;20.57;100.00;98871.47;5019186;28;125855;-75
2022/07/24 01:14:12;;;;;;;29.73;24.73;;;19.60;1.00;;;20.49;100.00;98879.00;5017819;28;126090;-75
2022/07/24 01:16:40;;;;;;;32.08;25.48;;;19.60;1.00;;;20.48;100.00;98880.94;5018299;28;130082;-74
2022/07/24 01:19:10;;;;;;;32.22;24.05;;;19.60;1.00;;;20.52;100.00;98878.22;5018641;28;130274;-73
2022/07/24 01:21:45;;;;;;;27.83;23.40;;;19.60;1.00;;;20.55;100.00;98882.13;5018287;28;125711;-74
2022/07/24 01:24:14;;;;;;;27.02;21.48;;;19.60;1.00;;;20.51;100.00;98886.88;5018460;28;125465;-73
2022/07/24 01:26:42;;;;;;;26.40;22.27;;;19.60;99.90;;;20.34;100.00;98883.69;5017654;28;129885;-74
2022/07/24 01:29:11;;;;;;;23.17;19.15;;;19.60;99.90;;;20.29;100.00;98876.59;5018118;28;129464;-74
2022/07/24 01:31:39;;;;;;;26.63;21.02;;;19.60;99.90;;;20.30;100.00;98871.88;5020463;28;124443;-74
2022/07/24 01:34:08;;;;;;;30.90;19.70;;;19.60;99.90;;;20.35;100.00;98873.47;5018158;28;125684;-74
2022/07/24 01:36:37;;;;;;;30.10;21.02;;;19.60;99.90;;;20.33;100.00;98860.06;5003182;28;129596;-73
2022/07/24 01:39:07;;;;;;;23.70;21.08;;;19.50;99.90;;;20.28;100.00;98857.72;5017791;28;129663;-76
2022/07/24 01:41:35;;;;;;;26.63;20.80;;;19.50;99.90;;;20.29;100.00;98860.06;5003260;28;124486;-75
2022/07/24 01:44:04;;;;;;;26.95;20.95;;;19.50;99.90;;;20.39;100.00;98863.22;5018529;28;126088;-75
2022/07/24 01:46:33;;;;;;;28.70;20.27;;;19.50;99.90;;;20.46;100.00;98872.28;5010011;28;129973;-75
2022/07/24 01:49:02;;;;;;;23.83;21.02;;;19.50;99.90;;;20.54;100.00;98875.06;5017869;28;130075;-75
2022/07/24 01:51:30;;;;;;;24.38;20.25;;;19.50;99.90;;;20.54;100.00;98859.31;5017824;28;126804;-72
2022/07/24 01:53:59;;;;;;;27.20;20.63;;;19.50;99.90;;;20.47;100.00;98865.59;5019938;28;126181;-70
2022/07/24 01:56:29;;;;;;;28.38;21.75;;;19.60;99.90;;;20.55;100.00;98882.13;5017729;28;130038;-72
2022/07/24 01:58:58;;;;;;;24.27;20.50;;;19.60;1.00;;;20.60;100.00;98893.56;5018457;28;130157;-73
2022/07/24 02:01:29;;;;;;;27.85;22.58;;;19.50;1.00;;;20.62;100.00;98912.47;5017701;28;125981;-70
2022/07/24 02:03:57;;;;;;;28.15;20.35;;;19.50;1.00;;;20.51;100.00;98928.22;5017645;28;125469;-70
2022/07/24 02:06:26;;;;;;;27.90;22.85;;;19.50;1.00;;;20.47;100.00;98920.72;5017500;28;129931;-72
2022/07/24 02:08:55;;;;;;;24.83;19.95;;;19.50;1.00;;;20.45;100.00;98911.25;5017735;28;129947;-76
2022/07/24 02:11:23;;;;;;;27.27;20.35;;;19.50;1.00;;;20.48;100.00;98914.00;5018061;28;126249;-71
2022/07/24 02:13:55;;;;;;;27.88;21.80;;;19.60;1.00;;;20.51;100.00;98904.19;5002658;28;125102;-71
2022/07/24 02:16:24;;;;;;;31.10;22.73;;;19.60;1.00;;;20.40;100.00;98901.41;5000815;28;128638;-69
2022/07/24 02:18:52;;;;;;;28.50;22.92;;;19.70;1.00;;;20.42;100.00;98887.25;5002725;28;128276;-72
2022/07/24 02:21:21;;;;;;;28.42;23.63;;;19.70;1.00;;;20.45;100.00;98894.72;5002682;28;124555;-73
2022/07/24 02:23:50;;;;;;;28.75;23.58;;;19.70;1.00;;;20.40;100.00;98871.09;5017418;28;125623;-73
2022/07/24 02:26:18;;;;;;;27.08;22.63;;;19.60;1.00;;;20.39;100.00;98880.53;5014632;27;130136;-73
2022/07/24 02:28:48;;;;;;;31.52;24.55;;;19.60;1.00;;;20.34;100.00;98847.88;5017106;28;129413;-71
2022/07/24 02:31:18;;;;;;;22.77;18.83;;;19.40;1.00;;;20.15;100.00;98820.69;5002669;28;125291;-71
2022/07/24 02:33:47;;;;;;;17.85;12.98;;;19.30;1.00;;;19.87;100.00;98817.53;5017761;28;126421;-73
2022/07/24 02:36:15;;;;;;;15.00;12.55;;;19.20;1.00;;;19.83;100.00;98849.00;5018905;28;130451;-72
2022/07/24 02:38:44;;;;;;;19.20;13.65;;;19.10;1.00;;;19.81;100.00;98856.84;5017018;28;129562;-75
2022/07/24 02:41:12;;;;;;;16.52;12.60;;;19.10;1.00;;;19.74;100.00;98846.56;5016914;28;126693;-75
2022/07/24 02:43:41;;;;;;;16.92;11.85;;;19.00;1.00;;;19.74;100.00;98835.56;5017157;28;126187;-74
2022/07/24 02:46:10;;;;;;;16.17;12.13;;;19.00;1.00;;;19.70;100.00;98835.56;5017128;28;130935;-75
2022/07/24 02:48:39;;;;;;;17.70;12.82;;;18.90;1.00;;;19.75;100.00;98843.44;5016927;28;129617;-74
2022/07/24 02:51:08;;;;;;;17.20;13.02;;;18.90;1.00;;;19.72;100.00;98835.94;5002050;28;125036;-75
2022/07/24 02:53:37;;;;;;;19.10;14.55;;;18.90;1.00;;;19.68;100.00;98832.41;5017325;28;125480;-72
2022/07/24 02:56:06;;;;;;;18.73;14.73;;;18.90;1.00;;;19.63;100.00;98824.50;5017054;28;129877;-74
2022/07/24 02:58:35;;;;;;;21.05;16.40;;;18.90;1.00;;;19.44;100.00;98822.09;5017332;28;130641;-74
2022/07/24 03:01:04;;;;;;;25.02;18.77;;;18.90;1.00;;;19.19;100.00;98809.03;5016929;28;125509;-73
2022/07/24 03:03:33;;;;;;;26.25;19.23;;;18.90;1.00;;;19.22;100.00;98797.25;5016767;28;125541;-72
2022/07/24 03:06:04;;;;;;;24.02;19.60;;;18.90;1.00;;;19.23;100.00;98801.59;5016321;28;129739;-70
2022/07/24 03:08:32;;;;;;;20.92;16.33;;;18.80;1.00;;;19.07;100.00;98806.63;5009768;28;129628;-71
2022/07/24 03:11:01;;;;;;;19.65;14.60;;;18.70;1.00;;;18.97;100.00;98810.91;5002797;28;124723;-71
2022/07/24 03:13:29;;;;;;;16.02;13.98;;;18.70;1.00;;;18.96;100.00;98812.06;5017339;28;125485;-72
2022/07/24 03:15:58;;;;;;;15.90;11.52;;;18.70;1.00;;;18.86;100.00;98810.84;5017498;28;130394;-72
2022/07/24 03:18:27;;;;;;;14.52;10.60;;;18.60;1.00;;;18.92;100.00;98814.81;5016852;28;129678;-73
2022/07/24 03:20:55;;;;;;;16.02;10.95;;;18.60;1.00;;;19.07;100.00;98812.13;5002248;28;124470;-73
2022/07/24 03:23:25;;;;;;;13.77;9.90;;;18.60;1.00;;;19.03;100.00;98821.13;5017120;28;125528;-73
2022/07/24 03:25:54;;;;;;;13.63;10.43;;;18.60;1.00;;;19.07;100.00;98803.88;5015426;28;129886;-73
2022/07/24 03:28:23;;;;;;;11.43;9.73;;;18.50;1.00;;;19.16;100.00;98801.56;5018346;28;128502;-74
2022/07/24 03:30:52;;;;;;;11.85;9.60;;;18.60;1.00;;;19.03;100.00;98799.16;5001504;28;125562;-72
2022/07/24 03:33:20;;;;;;;12.23;9.55;;;18.50;1.00;;;18.97;100.00;98786.94;5017223;28;126658;-72
2022/07/24 03:35:49;;;;;;;11.25;8.80;;;18.50;1.00;;;18.90;100.00;98784.16;5016633;28;130611;-72
2022/07/24 03:38:17;;;;;;;9.90;8.10;;;18.50;1.00;;;18.89;100.00;98790.06;5018076;28;130110;-70
2022/07/24 03:40:47;;;;;;;10.27;7.82;;;18.50;1.00;;;18.99;100.00;98798.31;5020303;28;125773;-72
2022/07/24 03:43:16;;;;;;;11.30;7.43;;;18.50;1.00;;;19.08;100.00;98799.97;5020204;28;125574;-76
2022/07/24 03:45:45;;;;;;;9.73;7.70;;;18.60;1.00;;;19.22;100.00;98806.28;5019715;28;129817;-74
2022/07/24 03:48:14;;;;;;;10.10;7.38;;;18.60;1.00;;;19.34;100.00;98812.66;5020356;28;129531;-72
2022/07/24 03:50:42;;;;;;;10.63;7.75;;;18.60;1.00;;;19.43;100.00;98810.31;5005281;28;124264;-74
2022/07/24 03:53:11;;;;;;;8.82;7.50;;;18.60;1.00;;;19.52;100.00;98818.19;5019788;28;125750;-73
2022/07/24 03:55:39;;;;;;;11.85;7.35;;;18.60;1.00;;;19.55;100.00;98817.41;5019419;28;129971;-74
2022/07/24 03:58:09;;;;;;;9.93;7.72;;;18.60;1.00;;;19.54;100.00;98832.34;5021520;28;128538;-72
2022/07/24 04:00:38;;;;;;;12.93;7.57;;;18.60;1.00;;;19.60;100.00;98835.53;5004930;28;125022;-74
2022/07/24 04:03:06;;;;;;;11.63;7.85;;;18.60;1.00;;;19.67;100.00;98841.84;5019688;28;125976;-71
2022/07/24 04:05:35;;;;;;;11.32;7.95;;;18.70;1.00;;;19.72;100.00;98846.97;5004609;28;128879;-72
2022/07/24 04:08:04;;;;;;;12.52;8.18;;;18.70;1.00;;;19.79;100.00;98853.69;5019197;28;129185;-73
2022/07/24 04:10:32;;;;;;;11.45;8.77;;;18.70;1.00;;;19.83;100.00;98849.78;5011641;28;125745;-74
2022/07/24 04:13:01;;;;;;;12.25;9.73;;;18.70;1.00;;;19.85;100.00;98855.69;5019894;28;125691;-75
2022/07/24 04:15:31;;;;;;;11.90;10.10;;;18.70;1.00;;;19.91;100.00;98856.09;5019244;28;129667;-74
2022/07/24 04:18:00;;;;;;;11.40;9.45;;;18.80;1.00;;;19.91;100.00;98865.16;5019633;28;130032;-73
2022/07/24 04:20:29;;;;;;;14.65;9.82;;;18.80;1.00;;;19.97;100.00;98860.03;5019135;28;126391;-75
2022/07/24 04:23:00;;;;;;;12.05;9.55;;;18.80;1.00;;;19.97;100.00;98871.03;5019432;28;126855;-73
2022/07/24 04:25:28;;;;;;;14.07;10.90;;;18.80;1.00;;;20.01;100.00;98869.09;5019189;28;130039;-76
2022/07/24 04:27:57;;;;;;;13.40;11.48;;;18.80;1.00;;;20.02;100.00;98873.41;5001162;28;129128;-73
2022/07/24 04:30:25;;;;;;;14.27;12.23;;;18.80;1.00;;;20.01;100.00;98877.34;5019339;28;125758;-75
2022/07/24 04:32:55;;;;;;;16.08;10.57;;;18.80;1.00;;;20.03;100.00;98883.25;5019507;28;125510;-74
2022/07/24 04:35:24;;;;;;;14.98;11.73;;;18.80;1.00;;;20.04;100.00;98882.09;5020976;28;130412;-73
2022/07/24 04:37:53;;;;;;;12.68;11.15;;;18.80;1.00;;;20.05;100.00;98882.88;5019886;28;129897;-72
2022/07/24 04:40:21;;;;;;;12.90;10.60;;;18.90;1.00;;;20.05;100.00;98888.38;5020870;28;125845;-71
2022/07/24 04:42:50;;;;;;;15.85;9.85;;;18.90;1.00;;;20.05;100.00;98886.41;5004179;28;125265;-70
2022/07/24 04:45:19;;;;;;;13.32;9.25;;;18.90;1.00;;;20.08;100.00;98887.59;5018743;28;130319;-74
2022/07/24 04:47:48;;;;;;;12.57;9.57;;;18.90;1.00;;;20.08;100.00;98888.38;5018834;28;129643;-73
2022/07/24 04:50:18;;;;;;;10.77;8.32;;;18.90;1.00;;;20.09;100.00;98894.69;5017956;28;125520;-73
2022/07/24 04:52:47;;;;;;;12.35;9.82;;;18.90;1.00;;;20.01;100.00;98888.38;5022174;28;125585;-73
2022/07/24 04:55:15;;;;;;;12.85;9.77;;;18.90;1.00;;;20.00;100.00;98902.53;5024631;28;130221;-75
2022/07/24 04:57:44;;;;;;;14.43;10.95;;;18.90;1.00;;;19.98;100.00;98894.66;5024771;28;129534;-74
2022/07/24 05:00:14;;;;;;;13.82;11.70;;;18.90;1.00;;;20.02;100.00;98906.44;5009653;28;127562;-73
2022/07/24 05:02:43;;;;;;;16.00;11.88;;;18.90;1.00;;;20.02;100.00;98898.19;5026071;28;125062;-76
2022/07/24 05:05:12;;;;;;;13.98;10.27;;;18.90;1.00;;;19.97;100.00;98893.06;5009669;28;128657;-76
2022/07/24 05:07:42;;;;;;;14.70;9.80;;;18.80;1.00;;;19.93;100.00;98887.56;5020409;28;129629;-74
2022/07/24 05:10:11;;;;;;;15.18;8.95;;;18.70;1.00;;;19.85;100.00;98874.16;5018142;28;126490;-75
2022/07/24 05:12:39;;;;;;;11.25;7.60;;;18.70;1.00;;;19.74;100.00;98874.91;5018586;28;126525;-75
2022/07/24 05:15:09;;;;;;;11.45;7.97;;;18.60;1.00;;;19.76;100.00;98880.03;5018459;28;129854;-73
2022/07/24 05:17:38;;;;;;;10.65;7.38;;;18.60;1.00;;;19.78;100.00;98874.16;5018324;28;129558;-74
2022/07/24 05:20:10;;;;;;;9.05;6.70;;;18.50;1.00;;;19.79;100.00;98867.44;5004198;28;124748;-76
2022/07/24 05:22:38;;;;;;;12.25;7.50;;;18.50;1.00;;;19.83;100.00;98857.25;5017083;28;125584;-74
2022/07/24 05:25:09;;;;;;;11.25;6.70;;;18.60;1.00;;;19.96;100.00;98847.47;5018164;28;129806;-74
2022/07/24 05:27:38;;;;;;;9.52;6.10;;;18.70;1.00;;;20.03;100.00;98850.22;5003912;28;129017;-73
2022/07/24 05:30:09;;;;;;;10.43;6.63;;;18.70;1.00;;;20.13;100.00;98851.41;5018143;28;125743;-77
2022/07/24 05:32:37;;;;;;;8.98;6.70;;;18.70;1.00;;;20.19;100.00;98838.03;5018132;28;125273;-73
2022/07/24 05:35:07;;;;;;;8.82;5.45;;;18.70;1.00;;;20.29;100.00;98832.53;5017559;28;129886;-73
2022/07/24 05:37:36;;;;;;;8.63;5.65;;;18.80;1.00;;;20.32;100.00;98828.22;5018002;28;129688;-73
2022/07/24 05:40:08;;;;;;;9.15;5.30;;;18.80;1.00;;;20.41;100.00;98834.13;5018065;28;126548;-72
2022/07/24 05:42:37;;;;;;;9.02;5.38;;;18.90;1.00;;;20.52;100.00;98833.31;5018200;28;125327;-74
2022/07/24 05:45:07;;;;;;;7.70;5.70;;;18.90;1.00;;;20.67;100.00;98832.13;5018066;28;129679;-75
2022/07/24 05:47:39;;;;;;;10.82;5.97;;;19.00;1.00;;;20.83;100.00;98824.25;5017851;28;130181;-75
2022/07/24 05:50:10;;;;;;;8.77;4.97;;;19.20;1.00;;;21.00;100.00;98830.91;5017927;28;125280;-75
2022/07/24 05:52:39;;;;;;;7.90;5.30;;;19.30;1.00;;;21.05;100.00;98829.72;5018312;28;126097;-76
2022/07/24 05:55:10;;;;;;;9.38;5.82;;;19.20;1.00;;;21.28;100.00;98822.94;5002846;28;130115;-75
2022/07/24 05:57:39;;;;;;;9.00;4.97;;;19.50;1.00;;;21.47;100.00;98833.50;5002877;28;129708;-75
2022/07/24 06:00:09;;;;;;;6.78;5.10;;;19.60;99.90;;;21.67;100.00;98833.03;5019517;27;127421;-74
2022/07/24 06:02:40;;;;;;;9.75;5.22;;;19.70;99.90;;;21.85;100.00;98835.69;5017653;28;126008;-72
2022/07/24 06:05:09;;;;;;;6.72;4.60;;;19.80;99.90;;;22.01;100.00;98830.44;5017713;28;129958;-74
2022/07/24 06:07:38;;;;;;;7.15;4.93;;;19.90;99.90;;;22.21;100.00;98827.94;5017663;28;130144;-76
2022/07/24 06:10:09;;;;;;;8.65;5.40;;;20.00;99.90;;;22.49;100.00;98817.88;5017618;28;126141;-75
2022/07/24 06:12:38;;;;;;;6.70;4.68;;;20.30;99.90;;;22.63;100.00;98819.72;5017705;28;125730;-75
2022/07/24 06:15:09;;;;;;;10.70;4.95;;;20.30;99.90;;;22.57;100.00;98833.19;5017593;28;129982;-75
2022/07/24 06:17:38;;;;;;;7.90;4.93;;;20.30;99.90;;;22.58;100.00;98828.47;5017687;28;129590;-75
2022/07/24 06:20:08;;;;;;;8.32;5.15;;;20.30;99.90;;;22.54;100.00;98836.78;5017315;28;126890;-71
2022/07/24 06:22:37;;;;;;;7.57;5.03;;;20.30;99.90;;;22.29;100.00;98838.94;5017440;28;126088;-73
2022/07/24 06:25:08;;;;;;;8.00;5.10;;;20.10;99.90;;;22.24;100.00;98827.13;5017092;28;129790;-74
2022/07/24 06:27:42;;;;;;;7.03;4.95;;;20.10;99.90;;;22.02;100.00;98831.25;5017464;28;130633;-75
2022/07/24 06:30:15;;;;;;;7.00;5.00;;;19.80;99.90;;;21.83;100.00;98830.56;5017408;28;125760;-73
2022/07/24 06:32:44;;;;;;;10.80;6.05;;;19.60;99.90;;;21.62;100.00;98836.22;5017138;28;126806;-73
2022/07/24 06:35:13;;;;;;;8.20;5.30;;;19.50;99.90;;;21.40;100.00;98841.03;5017203;28;130368;-76
2022/07/24 06:37:42;;;;;;;7.00;4.85;;;19.40;99.90;;;21.25;100.00;98840.28;5017162;28;129559;-76
2022/07/24 06:40:13;;;;;;;9.73;4.80;;;19.40;99.90;;;21.11;100.00;98847.41;5017369;28;126655;-76
2022/07/24 06:42:42;;;;;;;9.70;5.13;;;19.30;99.90;;;21.09;100.00;98844.28;5017614;28;125465;-74
2022/07/24 06:45:11;;;;;;;6.95;4.88;;;19.30;99.90;;;21.19;100.00;98832.44;5017386;28;130218;-77
2022/07/24 06:47:40;;;;;;;9.13;5.53;;;19.50;99.90;;;21.27;100.00;98837.91;5018803;28;129527;-73
2022/07/24 06:50:11;;;;;;;8.95;5.78;;;19.50;99.90;;;21.39;100.00;98840.22;5016749;28;126580;-77
2022/07/24 06:52:39;;;;;;;9.57;5.28;;;19.50;99.90;;;21.46;100.00;98842.97;5017134;28;126349;-74
2022/07/24 06:55:11;;;;;;;7.70;5.30;;;19.50;99.90;;;21.45;100.00;98843.38;5016889;28;129902;-76
2022/07/24 06:57:39;;;;;;;6.65;5.07;;;19.40;99.90;;;21.43;100.00;98846.53;5017034;28;129935;-75
2022/07/24 07:00:11;;;;;;;7.57;5.68;;;19.40;99.90;;;21.30;100.00;98839.84;5019457;28;126254;-76
2022/07/24 07:02:40;;;;;;;6.63;4.95;;;19.20;99.90;;;21.25;100.00;98834.75;5018107;28;125509;-75
2022/07/24 07:05:09;;;;;;;7.22;5.15;;;19.20;99.90;;;21.33;100.00;98831.59;5017523;28;130378;-76
2022/07/24 07:07:39;;;;;;;6.35;4.90;;;19.40;99.90;;;21.28;100.00;98826.47;5017196;28;130200;-78
2022/07/24 07:10:09;;;;;;;7.15;5.25;;;19.40;99.90;;;21.34;100.00;98829.59;5016857;28;125768;-74
2022/07/24 07:12:39;;;;;;;7.28;5.25;;;19.50;99.90;;;21.40;100.00;98825.25;5001303;28;124319;-77
2022/07/24 07:15:11;;;;;;;7.10;5.15;;;19.70;99.90;;;21.27;100.00;98821.34;5016170;28;130282;-76
2022/07/24 07:17:40;;;;;;;6.80;4.40;;;19.40;99.90;;;21.31;100.00;98817.38;5016679;28;129532;-74
2022/07/24 07:20:11;;;;;;;6.35;4.50;;;19.60;99.90;;;21.54;100.00;98819.69;5016681;28;125789;-77
2022/07/24 07:22:40;;;;;;;6.78;4.60;;;19.80;99.90;;;21.70;100.00;98818.41;5016762;28;125218;-73
2022/07/24 07:25:10;;;;;;;7.30;4.65;;;19.80;99.90;;;21.58;100.00;98818.88;5016543;28;129868;-77
2022/07/24 07:27:41;;;;;;;6.28;4.25;;;19.50;99.90;;;21.70;100.00;98807.38;5016783;28;129537;-77
2022/07/24 07:30:12;;;;;;;6.25;4.60;;;19.70;99.90;;;21.98;100.00;98794.56;5016343;28;126090;-74
2022/07/24 07:32:41;;;;;;;6.05;4.50;;;19.80;99.90;;;22.16;100.00;98797.19;5016998;28;125616;-76
2022/07/24 07:35:11;;;;;;;7.00;5.30;;;20.20;99.90;;;22.41;99.50;98791.50;5016477;28;131177;-78
2022/07/24 07:37:40;;;;;;;6.55;5.50;;;20.50;99.90;;;22.25;95.87;98778.16;5001497;28;129219;-76
2022/07/24 07:40:10;;;;;;;8.15;6.22;;;20.30;99.90;;;22.06;97.18;98777.56;5015990;28;126388;-77
2022/07/24 07:42:40;;;;;;;6.75;5.25;;;20.20;99.90;;;22.21;95.81;98756.09;5016294;28;126182;-79
2022/07/24 07:45:10;;;;;;;7.00;5.25;;;20.20;99.90;;;22.17;96.49;98766.38;5016699;28;130110;-76
2022/07/24 07:47:39;;;;;;;7.70;5.57;;;20.20;99.90;;;21.77;98.87;98754.88;5016426;28;129313;-77
2022/07/24 07:50:09;;;;;;;7.13;4.95;;;20.00;99.90;;;22.06;97.41;98768.44;5001574;28;125494;-78
2022/07/24 07:52:38;;;;;;;6.15;4.80;;;19.80;99.90;;;21.92;99.80;98771.34;5016317;28;125640;-79
2022/07/24 07:55:07;;;;;;;7.28;5.50;;;20.10;99.90;;;22.36;97.37;98781.66;4998222;28;130121;-76
2022/07/24 07:57:36;;;;;;;6.97;4.78;;;20.30;99.90;;;22.57;95.52;98777.91;5016543;28;129537;-78
2022/07/24 08:00:08;;;;;;;6.53;4.68;;;20.50;99.90;;;23.19;92.80;98793.84;5018714;28;125884;-78
2022/07/24 08:02:40;;;;;;;6.90;5.05;;;20.70;99.90;;;23.55;89.31;98788.66;5016635;28;125521;-77
2022/07/24 08:05:10;;;;;;;10.98;6.80;;;20.60;99.90;;;23.52;91.96;98798.56;4999159;28;130090;-78
2022/07/24 08:07:39;;;;;;;7.68;5.10;;;20.80;99.90;;;23.86;88.62;98802.50;5017602;28;129653;-78
2022/07/24 08:10:08;;;;;;;10.15;5.97;;;21.00;99.90;;;23.86;88.41;98800.50;5017426;28;126370;-75
2022/07/24 08:12:37;;;;;;;6.88;4.75;;;20.90;99.90;;;23.86;85.55;98813.56;5016133;28;125345;-77
2022/07/24 08:15:09;;;;;;;10.75;5.20;;;20.50;99.90;;;23.76;84.60;98803.38;5015851;28;129809;-77
2022/07/24 08:17:38;;;;;;;8.95;5.65;;;20.10;99.90;;;23.83;87.39;98808.84;5001013;28;129514;-76
2022/07/24 08:20:08;;;;;;;7.18;5.32;;;20.90;99.90;;;24.10;87.72;98819.16;5016120;28;125445;-76
2022/07/24 08:22:37;;;;;;;7.95;5.00;;;21.20;99.90;;;24.11;83.62;98807.63;5016859;28;125722;-78
2022/07/24 08:25:06;;;;;;;7.05;5.50;;;20.80;99.90;;;24.10;81.86;98810.84;5018662;27;131112;-76
2022/07/24 08:27:37;;;;;;;7.82;5.65;;;20.60;99.90;;;24.20;81.29;98809.88;5004418;28;128571;-78
2022/07/24 08:30:09;;;;;;;6.35;4.53;;;20.40;99.90;;;24.49;80.44;98798.31;5018893;28;126719;-76
2022/07/24 08:32:38;;;;;;;6.28;4.82;;;21.20;99.90;;;24.96;79.12;98791.94;5019351;28;126240;-78
2022/07/24 08:35:08;;;;;;;7.63;5.75;;;21.80;99.90;;;25.21;76.75;98791.41;5004355;28;129594;-79
2022/07/24 08:37:38;;;;;;;5.53;4.32;;;22.10;99.90;;;25.39;75.51;98786.31;5019237;28;129602;-78
2022/07/24 08:40:10;;;;;;;6.18;4.82;;;21.80;99.90;;;25.99;73.60;98788.16;5019696;28;126438;-78
2022/07/24 08:42:39;;;;;;;7.50;5.30;;;22.10;99.90;;;26.33;71.85;98800.84;5019443;28;125558;-78
2022/07/24 08:45:10;;;;;;;6.80;4.85;;;22.10;99.90;;;25.92;71.36;98799.44;5018992;28;130631;-75
2022/07/24 08:47:41;;;;;;;7.53;5.57;;;22.10;99.90;;;25.70;70.86;98805.47;5019220;28;129492;-77
2022/07/24 08:50:11;;;;;;;6.50;4.85;;;21.10;99.90;;;25.25;75.61;98809.56;5019139;28;125774;-75
2022/07/24 08:52:40;;;;;;;5.82;4.72;;;21.30;99.90;;;24.85;75.55;98808.78;5019409;28;125684;-75
2022/07/24 08:55:09;;;;;;;6.68;5.18;;;21.20;99.90;;;25.25;75.74;98814.34;5018473;28;129823;-75
2022/07/24 08:57:37;;;;;;;5.47;4.22;;;21.60;99.90;;;26.07;71.03;98828.50;5018769;28;129641;-75
2022/07/24 09:00:09;;;;;;;5.55;4.38;;;22.10;99.90;;;26.14;69.49;98833.09;5021344;28;126713;-74
2022/07/24 09:02:39;;;;;;;6.20;4.90;;;22.60;99.90;;;25.43;74.05;98842.56;5018635;28;126933;-75
2022/07/24 09:05:09;;;;;;;7.32;5.47;;;21.80;99.90;;;24.83;76.05;98839.72;5018837;28;130501;-74
2022/07/24 09:07:38;;;;;;;8.52;5.18;;;21.10;99.90;;;24.40;78.37;98840.44;5018583;28;129511;-76
2022/07/24 09:10:09;;;;;;;7.45;5.40;;;21.10;99.90;;;24.43;80.28;98849.91;5018569;28;126447;-74
2022/07/24 09:12:39;;;;;;;7.13;5.03;;;21.40;99.90;;;24.63;77.52;98853.56;5018860;28;125430;-77
2022/07/24 09:15:22;;;;;;;6.78;5.25;;;21.30;99.90;;;25.03;75.53;98853.63;5018409;28;130984;-74
2022/07/24 09:17:54;;;;;;;5.65;4.50;;;21.60;99.90;;;25.43;74.74;98856.47;5018686;28;129574;-74
2022/07/24 09:20:24;;;;;;;6.45;5.03;;;21.70;99.90;;;25.32;74.30;98847.53;5003298;28;126168;-75
2022/07/24 09:22:53;;;;;;;7.93;4.70;;;21.30;99.90;;;25.34;76.86;98861.78;5018400;28;126507;-73
2022/07/24 09:25:24;;;;;;;5.50;3.92;;;21.80;99.90;;;25.45;72.77;98856.81;5018262;28;129914;-73
2022/07/24 09:27:56;;;;;;;6.80;5.10;;;21.70;99.90;;;25.35;73.89;98857.78;5018141;28;129336;-76
2022/07/24 09:30:31;;;;;;;6.40;5.07;;;21.90;99.90;;;25.17;74.85;98854.59;5018243;28;126266;-74
2022/07/24 09:33:03;;;;;;;6.45;5.38;;;22.00;99.90;;;25.01;75.89;98850.50;5018068;28;125300;-76
2022/07/24 09:35:34;;;;;;;6.18;4.40;;;21.60;99.90;;;25.00;76.53;98854.47;5009567;27;130426;-75
2022/07/24 09:38:04;;;;;;;5.72;4.22;;;21.80;99.90;;;24.91;76.88;98857.03;5019011;28;129690;-76
2022/07/24 09:40:35;;;;;;;6.95;5.22;;;22.10;99.90;;;25.20;74.51;98856.50;5018056;28;126310;-78
2022/07/24 09:43:23;;;;;;;6.32;4.55;;;21.80;99.90;;;25.01;72.78;98867.16;5018114;28;125520;-75
2022/07/24 09:46:00;;;;;;;7.00;4.38;;;21.40;99.90;;;25.39;71.80;98864.06;5016128;28;129894;-77
2022/07/24 09:48:32;;;;;;;5.10;3.80;;;21.80;99.90;;;25.65;70.31;98875.47;5018258;28;129698;-77
2022/07/24 09:51:03;;;;;;;5.78;4.50;;;21.80;99.90;;;25.99;69.23;98871.56;5018536;28;126228;-78
2022/07/24 09:53:34;;;;;;;6.70;3.75;;;22.50;99.90;;;26.26;67.22;98873.34;5018144;28;125358;-78
2022/07/24 09:56:06;;;;;;;5.25;3.75;;;22.30;99.90;;;26.41;67.84;98874.53;5017897;28;129409;-75
2022/07/24 09:58:37;;;;;;;4.82;3.20;;;22.30;99.90;;;26.49;66.39;98875.97;5017030;28;129790;-75
2022/07/24 10:01:09;;;;;;;6.03;3.72;;;22.30;99.90;;;25.72;69.30;98880.84;5018225;28;125704;-75
2022/07/24 10:03:42;;;;;;;4.93;3.75;;;22.30;99.90;;;25.55;72.28;98882.00;5018431;28;125546;-79
2022/07/24 10:06:14;;;;;;;5.95;4.00;;;22.50;99.90;;;25.40;72.50;98882.31;5017687;28;129768;-74
2022/07/24 10:08:45;;;;;;;5.20;3.70;;;22.50;99.90;;;25.79;71.82;98875.16;5017589;28;129573;-74
2022/07/24 10:11:15;;;;;;;7.90;4.25;;;22.80;99.90;;;26.27;66.90;98886.81;5016336;28;126396;-76
2022/07/24 10:13:45;;;;;;;5.43;4.13;;;22.50;99.90;;;26.04;69.25;98879.41;5017707;28;126166;-77
2022/07/24 10:16:33;;;;;;;6.18;4.53;;;22.70;99.90;;;25.51;71.29;98881.28;5017606;28;130404;-76